sensor_id;sensor_type;location;lat;lon;timestamp;noise_LAeq;noise_LA_min;noise_LA_max;noise_LA01;noise_LA95
41518;Laerm;27249;48.094;-1.690;2023-10-09T00:01:24;45.43;41.53;58.41;;
41518;Laerm;27249;48.094;-1.690;2023-10-09T00:03:49;43.61;41.38;46.55;;
41518;Laerm;27249;48.094;-1.690;2023-10-09T00:06:18;45.50;41.46;54.95;;
41518;Laerm;27249;48.094;-1.690;2023-10-09T00:08:49;46.05;41.96;60.73;;
41518;Laerm;27249;48.094;-1.690;2023-10-09T00:11:19;43.78;41.75;45.69;;
41518;Laerm;27249;48.094;-1.690;2023-10-09T00:13:46;48.63;41.22;60.92;;
41518;Laerm;27249;48.094;-1.690;2023-10-09T00:16:17;43.51;40.89;47.96;;
41518;Laerm;27249;48.094;-1.690;2023-10-09T00:18:52;45.49;41.46;57.56;;
41518;Laerm;27249;48.094;-1.690;2023-10-09T00:21:18;46.14;42.09;60.94;;
41518;Laerm;27249;48.094;-1.690;2023-10-09T00:23:47;43.91;42.06;46.50;;
41518;Laerm;27249;48.094;-1.690;2023-10-09T00:26:20;47.87;41.68;59.27;;
41518;Laerm;27249;48.094;-1.690;2023-10-09T00:28:46;44.43;41.30;54.27;;
41518;Laerm;27249;48.094;-1.690;2023-10-09T00:31:15;46.35;40.98;59.21;;
41518;Laerm;27249;48.094;-1.690;2023-10-09T00:33:41;46.05;41.53;57.81;;
41518;Laerm;27249;48.094;-1.690;2023-10-09T00:36:07;43.85;41.61;52.60;;
41518;Laerm;27249;48.094;-1.690;2023-10-09T00:38:38;45.41;42.22;59.33;;
41518;Laerm;27249;48.094;-1.690;2023-10-09T00:41:30;49.28;41.96;66.05;;
41518;Laerm;27249;48.094;-1.690;2023-10-09T00:44:00;43.70;41.14;46.23;;
41518;Laerm;27249;48.094;-1.690;2023-10-09T00:46:26;43.83;41.61;47.16;;
41518;Laerm;27249;48.094;-1.690;2023-10-09T00:48:56;46.16;41.75;56.70;;
41518;Laerm;27249;48.094;-1.690;2023-10-09T00:51:22;43.92;41.38;45.57;;
41518;Laerm;27249;48.094;-1.690;2023-10-09T00:53:51;48.23;42.03;60.25;;
41518;Laerm;27249;48.094;-1.690;2023-10-09T00:56:20;50.12;41.96;61.31;;
41518;Laerm;27249;48.094;-1.690;2023-10-09T00:58:52;46.10;42.16;55.31;;
41518;Laerm;27249;48.094;-1.690;2023-10-09T01:01:21;45.73;42.35;54.97;;
41518;Laerm;27249;48.094;-1.690;2023-10-09T01:03:52;45.08;41.96;53.82;;
41518;Laerm;27249;48.094;-1.690;2023-10-09T01:06:17;45.75;41.89;57.76;;
41518;Laerm;27249;48.094;-1.690;2023-10-09T01:08:46;43.93;41.46;56.55;;
41518;Laerm;27249;48.094;-1.690;2023-10-09T01:11:20;47.15;41.68;59.18;;
41518;Laerm;27249;48.094;-1.690;2023-10-09T01:13:55;47.07;41.68;56.12;;
41518;Laerm;27249;48.094;-1.690;2023-10-09T01:16:36;46.05;41.68;59.87;;
41518;Laerm;27249;48.094;-1.690;2023-10-09T01:19:01;47.01;41.75;61.28;;
41518;Laerm;27249;48.094;-1.690;2023-10-09T01:21:31;44.48;41.68;67.41;;
41518;Laerm;27249;48.094;-1.690;2023-10-09T01:23:56;45.73;41.89;57.71;;
41518;Laerm;27249;48.094;-1.690;2023-10-09T01:26:35;44.47;42.16;59.83;;
41518;Laerm;27249;48.094;-1.690;2023-10-09T01:29:12;45.55;42.59;55.68;;
41518;Laerm;27249;48.094;-1.690;2023-10-09T01:31:45;44.39;42.71;47.98;;
41518;Laerm;27249;48.094;-1.690;2023-10-09T01:34:16;46.27;42.82;53.79;;
41518;Laerm;27249;48.094;-1.690;2023-10-09T01:36:42;44.01;42.41;55.00;;
41518;Laerm;27249;48.094;-1.690;2023-10-09T01:39:07;44.47;41.53;51.56;;
41518;Laerm;27249;48.094;-1.690;2023-10-09T01:41:49;46.33;42.03;61.88;;
41518;Laerm;27249;48.094;-1.690;2023-10-09T01:44:17;47.80;42.09;59.63;;
41518;Laerm;27249;48.094;-1.690;2023-10-09T01:46:42;44.19;42.03;48.15;;
41518;Laerm;27249;48.094;-1.690;2023-10-09T01:49:10;47.64;41.96;60.26;;
41518;Laerm;27249;48.094;-1.690;2023-10-09T01:51:42;45.22;42.35;54.42;;
41518;Laerm;27249;48.094;-1.690;2023-10-09T01:54:08;44.01;42.03;49.33;;
41518;Laerm;27249;48.094;-1.690;2023-10-09T01:56:34;45.47;41.46;57.18;;
41518;Laerm;27249;48.094;-1.690;2023-10-09T01:59:03;44.04;42.09;49.23;;
41518;Laerm;27249;48.094;-1.690;2023-10-09T02:01:31;47.10;42.06;61.79;;
41518;Laerm;27249;48.094;-1.690;2023-10-09T02:04:05;49.83;42.53;65.54;;
41518;Laerm;27249;48.094;-1.690;2023-10-09T02:06:38;46.40;41.82;57.77;;
41518;Laerm;27249;48.094;-1.690;2023-10-09T02:09:03;45.94;42.03;59.20;;
41518;Laerm;27249;48.094;-1.690;2023-10-09T02:11:31;44.22;42.09;51.69;;
41518;Laerm;27249;48.094;-1.690;2023-10-09T02:14:06;51.14;42.29;72.21;;
41518;Laerm;27249;48.094;-1.690;2023-10-09T02:16:44;48.09;42.59;55.43;;
41518;Laerm;27249;48.094;-1.690;2023-10-09T02:19:09;47.40;42.03;63.47;;
41518;Laerm;27249;48.094;-1.690;2023-10-09T02:21:54;50.09;41.75;61.67;;
41518;Laerm;27249;48.094;-1.690;2023-10-09T02:24:21;45.56;42.16;54.79;;
41518;Laerm;27249;48.094;-1.690;2023-10-09T02:27:05;47.44;41.75;58.37;;
41518;Laerm;27249;48.094;-1.690;2023-10-09T02:29:33;47.16;42.59;58.44;;
41518;Laerm;27249;48.094;-1.690;2023-10-09T02:32:03;48.46;42.76;60.25;;
41518;Laerm;27249;48.094;-1.690;2023-10-09T02:34:38;51.40;42.16;63.53;;
41518;Laerm;27249;48.094;-1.690;2023-10-09T02:37:03;51.87;42.64;65.55;;
41518;Laerm;27249;48.094;-1.690;2023-10-09T02:39:37;50.67;42.59;66.95;;
41518;Laerm;27249;48.094;-1.690;2023-10-09T02:42:08;52.49;43.04;62.37;;
41518;Laerm;27249;48.094;-1.690;2023-10-09T02:44:39;47.23;42.71;61.14;;
41518;Laerm;27249;48.094;-1.690;2023-10-09T02:47:11;47.26;42.53;59.22;;
41518;Laerm;27249;48.094;-1.690;2023-10-09T02:49:37;50.35;42.76;63.78;;
41518;Laerm;27249;48.094;-1.690;2023-10-09T02:52:05;51.87;42.71;61.44;;
41518;Laerm;27249;48.094;-1.690;2023-10-09T02:54:32;49.94;43.04;61.03;;
41518;Laerm;27249;48.094;-1.690;2023-10-09T02:57:01;50.30;43.39;68.62;;
41518;Laerm;27249;48.094;-1.690;2023-10-09T02:59:33;47.86;43.19;59.61;;
41518;Laerm;27249;48.094;-1.690;2023-10-09T03:01:58;46.16;42.41;55.40;;
41518;Laerm;27249;48.094;-1.690;2023-10-09T03:04:27;49.63;42.93;58.63;;
41518;Laerm;27249;48.094;-1.690;2023-10-09T03:06:54;47.92;42.71;57.00;;
41518;Laerm;27249;48.094;-1.690;2023-10-09T03:09:22;47.43;43.24;61.79;;
41518;Laerm;27249;48.094;-1.690;2023-10-09T03:11:54;47.45;42.59;59.44;;
41518;Laerm;27249;48.094;-1.690;2023-10-09T03:14:20;46.27;42.82;55.24;;
41518;Laerm;27249;48.094;-1.690;2023-10-09T03:16:46;51.27;42.29;61.68;;
41518;Laerm;27249;48.094;-1.690;2023-10-09T03:19:14;49.07;42.88;63.99;;
41518;Laerm;27249;48.094;-1.690;2023-10-09T03:21:39;50.30;42.88;63.43;;
41518;Laerm;27249;48.094;-1.690;2023-10-09T03:24:04;48.88;43.09;60.00;;
41518;Laerm;27249;48.094;-1.690;2023-10-09T03:26:30;49.18;43.49;58.83;;
41518;Laerm;27249;48.094;-1.690;2023-10-09T03:28:56;51.91;43.39;65.97;;
41518;Laerm;27249;48.094;-1.690;2023-10-09T03:31:21;49.55;43.37;64.57;;
41518;Laerm;27249;48.094;-1.690;2023-10-09T03:33:47;49.93;43.49;65.66;;
41518;Laerm;27249;48.094;-1.690;2023-10-09T03:36:12;48.94;43.14;59.56;;
41518;Laerm;27249;48.094;-1.690;2023-10-09T03:38:40;46.15;42.98;55.60;;
41518;Laerm;27249;48.094;-1.690;2023-10-09T03:41:05;48.21;42.82;60.98;;
41518;Laerm;27249;48.094;-1.690;2023-10-09T03:43:34;47.78;43.68;56.21;;
41518;Laerm;27249;48.094;-1.690;2023-10-09T03:46:06;51.60;43.29;60.01;;
41518;Laerm;27249;48.094;-1.690;2023-10-09T03:48:45;48.60;43.77;57.24;;
41518;Laerm;27249;48.094;-1.690;2023-10-09T03:51:11;47.76;44.11;56.73;;
41518;Laerm;27249;48.094;-1.690;2023-10-09T03:53:38;50.33;43.77;59.58;;
41518;Laerm;27249;48.094;-1.690;2023-10-09T03:56:07;51.49;44.73;63.74;;
41518;Laerm;27249;48.094;-1.690;2023-10-09T03:58:39;49.54;44.58;57.63;;
41518;Laerm;27249;48.094;-1.690;2023-10-09T04:01:08;49.88;44.51;59.40;;
41518;Laerm;27249;48.094;-1.690;2023-10-09T04:03:35;51.64;44.86;59.84;;
41518;Laerm;27249;48.094;-1.690;2023-10-09T04:06:01;51.36;44.27;60.34;;
41518;Laerm;27249;48.094;-1.690;2023-10-09T04:08:27;52.56;44.76;63.56;;
41518;Laerm;27249;48.094;-1.690;2023-10-09T04:10:55;51.59;45.11;59.02;;
41518;Laerm;27249;48.094;-1.690;2023-10-09T04:13:26;52.17;45.72;60.63;;
41518;Laerm;27249;48.094;-1.690;2023-10-09T04:15:58;49.53;44.58;59.83;;
41518;Laerm;27249;48.094;-1.690;2023-10-09T04:18:26;54.40;45.39;64.95;;
41518;Laerm;27249;48.094;-1.690;2023-10-09T04:20:58;50.27;44.69;59.13;;
41518;Laerm;27249;48.094;-1.690;2023-10-09T04:23:44;51.31;44.94;61.46;;
41518;Laerm;27249;48.094;-1.690;2023-10-09T04:26:35;50.67;45.14;61.16;;
41518;Laerm;27249;48.094;-1.690;2023-10-09T04:29:02;50.24;44.69;64.39;;
41518;Laerm;27249;48.094;-1.690;2023-10-09T04:31:27;49.34;44.58;58.30;;
41518;Laerm;27249;48.094;-1.690;2023-10-09T04:33:57;55.90;47.16;72.63;;
41518;Laerm;27249;48.094;-1.690;2023-10-09T04:36:41;51.64;45.17;60.66;;
41518;Laerm;27249;48.094;-1.690;2023-10-09T04:39:13;52.48;45.45;60.50;;
41518;Laerm;27249;48.094;-1.690;2023-10-09T04:41:38;52.54;45.39;60.69;;
41518;Laerm;27249;48.094;-1.690;2023-10-09T04:44:06;52.89;46.50;61.09;;
41518;Laerm;27249;48.094;-1.690;2023-10-09T04:46:47;51.50;46.43;58.57;;
41518;Laerm;27249;48.094;-1.690;2023-10-09T04:49:32;52.84;46.80;61.50;;
41518;Laerm;27249;48.094;-1.690;2023-10-09T04:52:17;55.00;47.38;62.68;;
41518;Laerm;27249;48.094;-1.690;2023-10-09T04:54:58;54.16;46.43;61.57;;
41518;Laerm;27249;48.094;-1.690;2023-10-09T04:57:35;55.67;48.12;64.56;;
41518;Laerm;27249;48.094;-1.690;2023-10-09T05:00:10;54.72;47.05;62.47;;
41518;Laerm;27249;48.094;-1.690;2023-10-09T05:02:48;54.43;48.58;73.66;;
41518;Laerm;27249;48.094;-1.690;2023-10-09T05:05:19;54.10;47.57;60.00;;
41518;Laerm;27249;48.094;-1.690;2023-10-09T05:08:03;55.74;48.32;66.01;;
41518;Laerm;27249;48.094;-1.690;2023-10-09T05:10:52;56.17;49.85;62.49;;
41518;Laerm;27249;48.094;-1.690;2023-10-09T05:13:27;56.12;51.49;63.83;;
41518;Laerm;27249;48.094;-1.690;2023-10-09T05:16:11;54.16;49.43;59.45;;
41518;Laerm;27249;48.094;-1.690;2023-10-09T05:18:51;54.69;49.33;61.85;;
41518;Laerm;27249;48.094;-1.690;2023-10-09T05:21:37;56.70;49.30;64.61;;
41518;Laerm;27249;48.094;-1.690;2023-10-09T05:24:25;55.65;49.38;63.84;;
41518;Laerm;27249;48.094;-1.690;2023-10-09T05:26:53;56.45;51.27;64.58;;
41518;Laerm;27249;48.094;-1.690;2023-10-09T05:29:37;57.14;52.34;66.52;;
41518;Laerm;27249;48.094;-1.690;2023-10-09T05:32:13;57.04;50.85;62.39;;
41518;Laerm;27249;48.094;-1.690;2023-10-09T05:34:42;56.51;50.53;62.88;;
41518;Laerm;27249;48.094;-1.690;2023-10-09T05:37:26;55.35;49.96;63.14;;
41518;Laerm;27249;48.094;-1.690;2023-10-09T05:39:57;56.30;51.00;62.58;;
41518;Laerm;27249;48.094;-1.690;2023-10-09T05:42:29;55.51;50.95;62.02;;
41518;Laerm;27249;48.094;-1.690;2023-10-09T05:47:45;57.14;51.62;61.49;;
41518;Laerm;27249;48.094;-1.690;2023-10-09T05:52:47;58.38;51.18;66.25;;
41518;Laerm;27249;48.094;-1.690;2023-10-09T05:55:16;57.89;52.47;72.31;;
41518;Laerm;27249;48.094;-1.690;2023-10-09T05:57:50;58.15;51.23;65.14;;
41518;Laerm;27249;48.094;-1.690;2023-10-09T06:00:24;56.57;51.64;67.90;;
41518;Laerm;27249;48.094;-1.690;2023-10-09T06:03:08;57.65;52.75;64.55;;
41518;Laerm;27249;48.094;-1.690;2023-10-09T06:05:49;56.44;51.27;62.37;;
41518;Laerm;27249;48.094;-1.690;2023-10-09T06:08:21;56.99;51.63;63.42;;
41518;Laerm;27249;48.094;-1.690;2023-10-09T06:11:06;57.31;51.48;65.14;;
41518;Laerm;27249;48.094;-1.690;2023-10-09T06:13:55;57.50;52.02;66.96;;
41518;Laerm;27249;48.094;-1.690;2023-10-09T06:16:37;60.85;53.64;76.38;;
41518;Laerm;27249;48.094;-1.690;2023-10-09T06:19:21;57.19;52.67;72.29;;
41518;Laerm;27249;48.094;-1.690;2023-10-09T06:21:56;56.77;51.56;62.25;;
41518;Laerm;27249;48.094;-1.690;2023-10-09T06:24:37;57.53;51.59;65.89;;
41518;Laerm;27249;48.094;-1.690;2023-10-09T06:27:18;57.94;51.44;66.22;;
41518;Laerm;27249;48.094;-1.690;2023-10-09T06:29:55;57.33;53.15;63.68;;
41518;Laerm;27249;48.094;-1.690;2023-10-09T06:32:38;58.20;52.58;71.81;;
41518;Laerm;27249;48.094;-1.690;2023-10-09T06:35:14;58.17;53.33;65.65;;
41518;Laerm;27249;48.094;-1.690;2023-10-09T06:37:55;57.24;52.88;67.12;;
41518;Laerm;27249;48.094;-1.690;2023-10-09T06:40:27;57.08;52.29;63.26;;
41518;Laerm;27249;48.094;-1.690;2023-10-09T06:43:10;57.90;52.96;65.52;;
41518;Laerm;27249;48.094;-1.690;2023-10-09T06:45:42;58.01;53.75;69.82;;
41518;Laerm;27249;48.094;-1.690;2023-10-09T06:48:10;57.21;53.10;64.34;;
41518;Laerm;27249;48.094;-1.690;2023-10-09T06:50:54;58.90;53.58;68.42;;
41518;Laerm;27249;48.094;-1.690;2023-10-09T06:53:22;58.15;53.12;65.74;;
41518;Laerm;27249;48.094;-1.690;2023-10-09T06:55:58;59.09;52.40;66.54;;
41518;Laerm;27249;48.094;-1.690;2023-10-09T06:58:30;57.89;50.89;67.11;;
41518;Laerm;27249;48.094;-1.690;2023-10-09T07:01:06;58.01;53.68;64.23;;
41518;Laerm;27249;48.094;-1.690;2023-10-09T07:03:56;57.60;52.11;69.09;;
41518;Laerm;27249;48.094;-1.690;2023-10-09T07:06:43;56.86;51.80;61.76;;
41518;Laerm;27249;48.094;-1.690;2023-10-09T07:09:08;72.28;52.30;87.00;;
41518;Laerm;27249;48.094;-1.690;2023-10-09T07:11:34;63.77;52.74;76.84;;
41518;Laerm;27249;48.094;-1.690;2023-10-09T07:14:05;59.06;52.46;79.23;;
41518;Laerm;27249;48.094;-1.690;2023-10-09T07:16:32;57.14;50.91;64.63;;
41518;Laerm;27249;48.094;-1.690;2023-10-09T07:19:04;58.23;51.24;66.61;;
41518;Laerm;27249;48.094;-1.690;2023-10-09T07:21:50;57.29;53.06;61.10;;
41518;Laerm;27249;48.094;-1.690;2023-10-09T07:24:19;55.75;48.34;64.66;;
41518;Laerm;27249;48.094;-1.690;2023-10-09T07:26:49;57.26;49.55;71.38;;
41518;Laerm;27249;48.094;-1.690;2023-10-09T07:29:18;57.28;48.40;66.11;;
41518;Laerm;27249;48.094;-1.690;2023-10-09T07:31:47;57.90;53.63;64.49;;
41518;Laerm;27249;48.094;-1.690;2023-10-09T07:34:12;59.21;51.43;69.01;;
41518;Laerm;27249;48.094;-1.690;2023-10-09T07:36:56;58.23;49.40;77.77;;
41518;Laerm;27249;48.094;-1.690;2023-10-09T07:39:21;56.88;48.74;68.38;;
41518;Laerm;27249;48.094;-1.690;2023-10-09T07:41:47;57.98;49.89;67.91;;
41518;Laerm;27249;48.094;-1.690;2023-10-09T07:44:27;61.52;54.18;66.51;;
41518;Laerm;27249;48.094;-1.690;2023-10-09T07:47:04;60.55;51.74;67.64;;
41518;Laerm;27249;48.094;-1.690;2023-10-09T07:49:43;62.61;53.78;69.03;;
41518;Laerm;27249;48.094;-1.690;2023-10-09T07:52:16;58.12;49.64;66.41;;
41518;Laerm;27249;48.094;-1.690;2023-10-09T07:54:42;57.99;51.52;66.36;;
41518;Laerm;27249;48.094;-1.690;2023-10-09T07:57:15;55.75;51.21;68.30;;
41518;Laerm;27249;48.094;-1.690;2023-10-09T07:59:41;55.86;49.24;63.79;;
41518;Laerm;27249;48.094;-1.690;2023-10-09T08:02:19;56.93;47.20;66.27;;
41518;Laerm;27249;48.094;-1.690;2023-10-09T08:04:49;57.06;48.78;66.48;;
41518;Laerm;27249;48.094;-1.690;2023-10-09T08:07:15;56.21;48.42;71.94;;
41518;Laerm;27249;48.094;-1.690;2023-10-09T08:09:59;56.66;50.04;61.55;;
41518;Laerm;27249;48.094;-1.690;2023-10-09T08:13:03;55.17;48.67;62.69;;
41518;Laerm;27249;48.094;-1.690;2023-10-09T08:15:55;55.36;48.88;64.28;;
41518;Laerm;27249;48.094;-1.690;2023-10-09T08:18:21;57.44;52.15;66.69;;
41518;Laerm;27249;48.094;-1.690;2023-10-09T08:20:56;54.54;48.67;61.47;;
41518;Laerm;27249;48.094;-1.690;2023-10-09T08:23:22;55.73;49.32;61.05;;
41518;Laerm;27249;48.094;-1.690;2023-10-09T08:25:58;55.39;50.51;72.98;;
41518;Laerm;27249;48.094;-1.690;2023-10-09T08:28:38;56.11;50.13;72.93;;
41518;Laerm;27249;48.094;-1.690;2023-10-09T08:31:07;54.66;49.53;68.41;;
41518;Laerm;27249;48.094;-1.690;2023-10-09T08:33:43;54.79;49.11;62.67;;
41518;Laerm;27249;48.094;-1.690;2023-10-09T08:36:09;54.94;49.80;63.13;;
41518;Laerm;27249;48.094;-1.690;2023-10-09T08:38:36;55.56;49.19;66.34;;
41518;Laerm;27249;48.094;-1.690;2023-10-09T08:41:08;55.34;50.37;63.20;;
41518;Laerm;27249;48.094;-1.690;2023-10-09T08:43:43;56.54;50.63;71.21;;
41518;Laerm;27249;48.094;-1.690;2023-10-09T08:46:11;56.11;48.77;68.18;;
41518;Laerm;27249;48.094;-1.690;2023-10-09T08:48:38;57.01;48.54;63.07;;
41518;Laerm;27249;48.094;-1.690;2023-10-09T08:51:04;54.86;47.72;62.10;;
41518;Laerm;27249;48.094;-1.690;2023-10-09T08:53:31;55.35;47.79;63.36;;
41518;Laerm;27249;48.094;-1.690;2023-10-09T08:55:58;55.39;49.50;63.99;;
41518;Laerm;27249;48.094;-1.690;2023-10-09T08:58:23;56.09;46.43;65.06;;
41518;Laerm;27249;48.094;-1.690;2023-10-09T09:00:57;56.76;51.93;63.49;;
41518;Laerm;27249;48.094;-1.690;2023-10-09T09:03:25;56.43;47.83;66.96;;
41518;Laerm;27249;48.094;-1.690;2023-10-09T09:06:00;56.19;49.55;62.83;;
41518;Laerm;27249;48.094;-1.690;2023-10-09T09:08:26;56.96;51.86;65.56;;
41518;Laerm;27249;48.094;-1.690;2023-10-09T09:10:57;57.64;50.97;66.72;;
41518;Laerm;27249;48.094;-1.690;2023-10-09T09:13:25;55.92;49.21;65.57;;
41518;Laerm;27249;48.094;-1.690;2023-10-09T09:15:50;54.99;48.32;61.70;;
41518;Laerm;27249;48.094;-1.690;2023-10-09T09:18:18;56.93;51.10;66.74;;
41518;Laerm;27249;48.094;-1.690;2023-10-09T09:20:44;56.52;51.00;60.99;;
41518;Laerm;27249;48.094;-1.690;2023-10-09T09:23:12;55.72;48.55;63.71;;
41518;Laerm;27249;48.094;-1.690;2023-10-09T09:25:42;57.91;52.56;66.66;;
41518;Laerm;27249;48.094;-1.690;2023-10-09T09:28:09;56.60;50.55;67.18;;
41518;Laerm;27249;48.094;-1.690;2023-10-09T09:30:37;56.32;50.32;63.61;;
41518;Laerm;27249;48.094;-1.690;2023-10-09T09:33:16;55.99;47.98;67.96;;
41518;Laerm;27249;48.094;-1.690;2023-10-09T09:36:01;56.77;48.78;63.97;;
41518;Laerm;27249;48.094;-1.690;2023-10-09T09:38:30;58.57;49.15;69.61;;
41518;Laerm;27249;48.094;-1.690;2023-10-09T09:41:14;55.75;48.04;66.44;;
41518;Laerm;27249;48.094;-1.690;2023-10-09T09:43:55;55.15;47.38;62.74;;
41518;Laerm;27249;48.094;-1.690;2023-10-09T09:46:31;55.08;47.24;62.28;;
41518;Laerm;27249;48.094;-1.690;2023-10-09T09:49:00;56.48;47.74;66.51;;
41518;Laerm;27249;48.094;-1.690;2023-10-09T09:51:25;55.37;48.60;61.21;;
41518;Laerm;27249;48.094;-1.690;2023-10-09T09:53:54;57.08;51.41;66.07;;
41518;Laerm;27249;48.094;-1.690;2023-10-09T09:56:19;54.60;48.21;62.11;;
41518;Laerm;27249;48.094;-1.690;2023-10-09T09:58:46;55.78;47.83;63.14;;
41518;Laerm;27249;48.094;-1.690;2023-10-09T10:01:18;56.77;49.44;62.58;;
41518;Laerm;27249;48.094;-1.690;2023-10-09T10:04:10;55.87;47.63;65.92;;
41518;Laerm;27249;48.094;-1.690;2023-10-09T10:06:38;55.69;48.83;61.84;;
41518;Laerm;27249;48.094;-1.690;2023-10-09T10:09:06;56.32;48.36;65.46;;
41518;Laerm;27249;48.094;-1.690;2023-10-09T10:14:51;56.39;48.58;63.18;;
41518;Laerm;27249;48.094;-1.690;2023-10-09T10:17:17;54.93;49.21;60.41;;
41518;Laerm;27249;48.094;-1.690;2023-10-09T10:19:58;55.95;50.21;63.59;;
41518;Laerm;27249;48.094;-1.690;2023-10-09T10:22:46;55.02;46.62;62.13;;
41518;Laerm;27249;48.094;-1.690;2023-10-09T10:30:46;60.82;46.07;81.03;;
41518;Laerm;27249;48.094;-1.690;2023-10-09T10:33:11;56.27;47.48;66.83;;
41518;Laerm;27249;48.094;-1.690;2023-10-09T10:35:40;55.07;47.68;64.40;;
41518;Laerm;27249;48.094;-1.690;2023-10-09T10:40:49;54.84;47.06;66.31;;
41518;Laerm;27249;48.094;-1.690;2023-10-09T10:43:25;55.40;46.57;66.66;;
41518;Laerm;27249;48.094;-1.690;2023-10-09T10:46:09;54.32;46.38;66.36;;
41518;Laerm;27249;48.094;-1.690;2023-10-09T10:48:52;55.32;48.73;65.06;;
41518;Laerm;27249;48.094;-1.690;2023-10-09T10:51:27;54.47;46.45;66.12;;
41518;Laerm;27249;48.094;-1.690;2023-10-09T10:54:02;53.16;44.03;62.91;;
41518;Laerm;27249;48.094;-1.690;2023-10-09T10:56:46;54.81;47.46;64.58;;
41518;Laerm;27249;48.094;-1.690;2023-10-09T10:59:12;56.19;49.98;62.80;;
41518;Laerm;27249;48.094;-1.690;2023-10-09T11:01:38;58.89;47.32;73.60;;
41518;Laerm;27249;48.094;-1.690;2023-10-09T11:04:19;56.34;46.07;71.00;;
41518;Laerm;27249;48.094;-1.690;2023-10-09T11:06:51;52.82;44.73;60.53;;
41518;Laerm;27249;48.094;-1.690;2023-10-09T11:09:16;53.66;48.24;61.37;;
41518;Laerm;27249;48.094;-1.690;2023-10-09T11:11:51;55.17;47.79;63.56;;
41518;Laerm;27249;48.094;-1.690;2023-10-09T11:14:20;54.38;44.65;62.81;;
41518;Laerm;27249;48.094;-1.690;2023-10-09T11:16:48;54.99;47.42;62.87;;
41518;Laerm;27249;48.094;-1.690;2023-10-09T11:19:14;56.06;48.07;67.32;;
41518;Laerm;27249;48.094;-1.690;2023-10-09T11:22:10;54.80;43.77;61.34;;
41518;Laerm;27249;48.094;-1.690;2023-10-09T11:24:36;55.39;47.75;64.23;;
41518;Laerm;27249;48.094;-1.690;2023-10-09T11:27:02;54.36;46.15;62.77;;
41518;Laerm;27249;48.094;-1.690;2023-10-09T11:29:34;56.02;50.18;61.87;;
41518;Laerm;27249;48.094;-1.690;2023-10-09T11:32:09;56.26;50.86;62.67;;
41518;Laerm;27249;48.094;-1.690;2023-10-09T11:34:47;56.14;48.34;62.30;;
41518;Laerm;27249;48.094;-1.690;2023-10-09T11:37:20;56.28;51.51;61.75;;
41518;Laerm;27249;48.094;-1.690;2023-10-09T11:40:03;57.49;52.68;68.89;;
41518;Laerm;27249;48.094;-1.690;2023-10-09T11:42:32;57.15;51.40;70.63;;
41518;Laerm;27249;48.094;-1.690;2023-10-09T11:47:49;56.42;51.86;65.13;;
41518;Laerm;27249;48.094;-1.690;2023-10-09T11:50:44;57.36;52.65;66.44;;
41518;Laerm;27249;48.094;-1.690;2023-10-09T11:53:42;55.25;48.69;63.36;;
41518;Laerm;27249;48.094;-1.690;2023-10-09T11:56:23;55.38;46.89;68.59;;
41518;Laerm;27249;48.094;-1.690;2023-10-09T11:58:52;54.26;47.34;67.82;;
41518;Laerm;27249;48.094;-1.690;2023-10-09T12:01:18;54.98;45.04;62.72;;
41518;Laerm;27249;48.094;-1.690;2023-10-09T12:03:48;56.17;49.77;65.33;;
41518;Laerm;27249;48.094;-1.690;2023-10-09T12:06:17;54.23;45.80;60.28;;
41518;Laerm;27249;48.094;-1.690;2023-10-09T12:08:47;55.01;44.15;63.92;;
41518;Laerm;27249;48.094;-1.690;2023-10-09T12:11:12;54.76;45.01;66.43;;
41518;Laerm;27249;48.094;-1.690;2023-10-09T12:13:39;58.97;48.81;69.13;;
41518;Laerm;27249;48.094;-1.690;2023-10-09T12:16:07;55.95;46.30;69.47;;
41518;Laerm;27249;48.094;-1.690;2023-10-09T12:18:35;56.26;49.69;64.16;;
41518;Laerm;27249;48.094;-1.690;2023-10-09T12:21:01;53.32;44.83;60.00;;
41518;Laerm;27249;48.094;-1.690;2023-10-09T12:23:29;58.03;46.87;70.81;;
41518;Laerm;27249;48.094;-1.690;2023-10-09T12:25:59;54.40;47.24;66.96;;
41518;Laerm;27249;48.094;-1.690;2023-10-09T12:28:24;55.61;43.68;66.36;;
41518;Laerm;27249;48.094;-1.690;2023-10-09T12:30:50;54.94;45.54;66.64;;
41518;Laerm;27249;48.094;-1.690;2023-10-09T12:33:18;54.26;44.51;69.84;;
41518;Laerm;27249;48.094;-1.690;2023-10-09T12:35:53;56.63;45.63;73.74;;
41518;Laerm;27249;48.094;-1.690;2023-10-09T12:38:23;54.79;45.04;67.68;;
41518;Laerm;27249;48.094;-1.690;2023-10-09T12:41:00;54.82;47.40;62.61;;
41518;Laerm;27249;48.094;-1.690;2023-10-09T12:43:32;53.99;44.27;62.02;;
41518;Laerm;27249;48.094;-1.690;2023-10-09T12:46:06;53.25;44.62;61.81;;
41518;Laerm;27249;48.094;-1.690;2023-10-09T12:48:31;55.32;49.27;65.79;;
41518;Laerm;27249;48.094;-1.690;2023-10-09T12:50:57;55.33;47.50;62.98;;
41518;Laerm;27249;48.094;-1.690;2023-10-09T12:53:22;54.28;45.42;60.03;;
41518;Laerm;27249;48.094;-1.690;2023-10-09T12:55:47;53.38;44.97;60.06;;
41518;Laerm;27249;48.094;-1.690;2023-10-09T12:58:13;56.47;46.91;65.33;;
41518;Laerm;27249;48.094;-1.690;2023-10-09T13:00:43;54.65;47.93;66.48;;
41518;Laerm;27249;48.094;-1.690;2023-10-09T13:03:12;55.18;44.83;64.16;;
41518;Laerm;27249;48.094;-1.690;2023-10-09T13:05:47;54.40;43.63;62.20;;
41518;Laerm;27249;48.094;-1.690;2023-10-09T13:08:22;54.38;42.88;63.12;;
41518;Laerm;27249;48.094;-1.690;2023-10-09T13:10:49;55.77;47.24;62.27;;
41518;Laerm;27249;48.094;-1.690;2023-10-09T13:13:29;64.96;50.69;83.02;;
41518;Laerm;27249;48.094;-1.690;2023-10-09T13:18:57;54.68;47.36;64.16;;
41518;Laerm;27249;48.094;-1.690;2023-10-09T13:21:25;58.73;50.86;69.96;;
41518;Laerm;27249;48.094;-1.690;2023-10-09T13:23:51;54.51;46.18;59.80;;
41518;Laerm;27249;48.094;-1.690;2023-10-09T13:26:17;54.44;49.06;74.40;;
41518;Laerm;27249;48.094;-1.690;2023-10-09T13:28:46;54.39;45.39;61.65;;
41518;Laerm;27249;48.094;-1.690;2023-10-09T13:31:15;53.90;44.62;62.78;;
41518;Laerm;27249;48.094;-1.690;2023-10-09T13:33:41;57.57;46.25;65.87;;
41518;Laerm;27249;48.094;-1.690;2023-10-09T13:36:07;58.10;51.91;68.07;;
41518;Laerm;27249;48.094;-1.690;2023-10-09T13:38:57;58.24;52.71;63.30;;
41518;Laerm;27249;48.094;-1.690;2023-10-09T13:41:22;58.06;53.33;63.94;;
41518;Laerm;27249;48.094;-1.690;2023-10-09T13:43:53;56.85;50.63;66.31;;
41518;Laerm;27249;48.094;-1.690;2023-10-09T13:46:18;55.10;49.29;63.68;;
41518;Laerm;27249;48.094;-1.690;2023-10-09T13:48:44;56.10;48.21;68.86;;
41518;Laerm;27249;48.094;-1.690;2023-10-09T13:51:10;53.68;44.69;61.66;;
41518;Laerm;27249;48.094;-1.690;2023-10-09T13:53:48;55.31;45.30;67.07;;
41518;Laerm;27249;48.094;-1.690;2023-10-09T13:56:18;55.71;47.16;72.00;;
41518;Laerm;27249;48.094;-1.690;2023-10-09T13:58:51;55.58;46.78;64.23;;
41518;Laerm;27249;48.094;-1.690;2023-10-09T14:01:19;54.52;45.91;71.13;;
41518;Laerm;27249;48.094;-1.690;2023-10-09T14:03:58;62.38;49.08;80.61;;
41518;Laerm;27249;48.094;-1.690;2023-10-09T14:06:24;54.83;48.91;61.83;;
41518;Laerm;27249;48.094;-1.690;2023-10-09T14:08:56;54.93;48.16;64.33;;
41518;Laerm;27249;48.094;-1.690;2023-10-09T14:11:21;56.19;50.52;68.10;;
41518;Laerm;27249;48.094;-1.690;2023-10-09T14:13:47;55.21;44.94;68.07;;
41518;Laerm;27249;48.094;-1.690;2023-10-09T14:16:13;54.36;49.39;65.24;;
41518;Laerm;27249;48.094;-1.690;2023-10-09T14:18:52;56.18;47.87;64.64;;
41518;Laerm;27249;48.094;-1.690;2023-10-09T14:21:19;55.94;50.25;62.50;;